Time;durP1;ratioP1;P1;durP2;ratioP2;P2;SDS_P1;SDS_P2;PMS_P1;PMS_P2;Temp;Humidity;BMP_temperature;BMP_pressure;BME280_temperature;BME280_humidity;BME280_pressure;Samples;Min_cycle;Max_cycle;Signal;HPM_P1;HPM_P2
2021/06/04 00:00:35;;;;;;;;;9.00;8.25;;;;;;;;3724549;38;20532;-64
2021/06/04 00:03:10;;;;;;;;;7.50;7.50;;;;;;;;3724538;37;20528;-64
2021/06/04 00:05:37;;;;;;;;;9.75;9.00;;;;;;;;3724896;37;20531;-66
2021/06/04 00:08:04;;;;;;;;;8.00;7.00;;;;;;;;3725106;38;20564;-65
2021/06/04 00:10:34;;;;;;;;;6.50;6.50;;;;;;;;3725197;37;20515;-64
2021/06/04 00:13:17;;;;;;;;;9.00;8.00;;;;;;;;3724682;37;20507;-64
2021/06/04 00:15:44;;;;;;;;;7.25;7.25;;;;;;;;3724684;37;20668;-64
2021/06/04 00:18:10;;;;;;;;;9.00;8.00;;;;;;;;3725257;37;20531;-64
2021/06/04 00:20:37;;;;;;;;;8.00;8.00;;;;;;;;3725298;38;20538;-65
2021/06/04 00:23:04;;;;;;;;;8.00;7.25;;;;;;;;3725273;37;20523;-65
2021/06/04 00:25:30;;;;;;;;;6.00;6.00;;;;;;;;3725320;38;20529;-66
2021/06/04 00:27:57;;;;;;;;;8.75;8.75;;;;;;;;3724835;37;20510;-64
2021/06/04 00:30:23;;;;;;;;;7.25;7.25;;;;;;;;3725227;38;20480;-64
2021/06/04 00:32:49;;;;;;;;;8.25;8.25;;;;;;;;3725265;38;20820;-65
2021/06/04 00:35:15;;;;;;;;;8.00;8.00;;;;;;;;3725186;37;20473;-65
2021/06/04 00:37:43;;;;;;;;;8.75;8.75;;;;;;;;3726132;37;18345;-66
2021/06/04 00:40:14;;;;;;;;;8.00;8.00;;;;;;;;3727823;37;20458;-65
2021/06/04 00:42:41;;;;;;;;;7.50;7.50;;;;;;;;3724891;38;20499;-64
2021/06/04 00:45:11;;;;;;;;;9.75;9.00;;;;;;;;3724814;38;20477;-65
2021/06/04 00:47:37;;;;;;;;;8.00;8.00;;;;;;;;3725266;37;20487;-64
2021/06/04 00:50:04;;;;;;;;;8.00;8.00;;;;;;;;3725222;38;20487;-65
2021/06/04 00:52:35;;;;;;;;;7.00;7.00;;;;;;;;3730001;38;18310;-65
2021/06/04 00:55:03;;;;;;;;;8.00;7.75;;;;;;;;3730133;37;20477;-65
2021/06/04 00:57:29;;;;;;;;;7.25;7.25;;;;;;;;3724861;37;20448;-66
2021/06/04 01:00:05;;;;;;;;;7.75;7.75;;;;;;;;3724642;37;20463;-63
2021/06/04 01:02:31;;;;;;;;;7.25;7.25;;;;;;;;3725023;38;20471;-64
2021/06/04 01:04:58;;;;;;;;;7.75;7.75;;;;;;;;3725217;38;20509;-64
2021/06/04 01:07:31;;;;;;;;;8.00;7.00;;;;;;;;3725001;38;20464;-63
2021/06/04 01:10:19;;;;;;;;;6.00;6.00;;;;;;;;3725003;37;20419;-64
2021/06/04 01:13:05;;;;;;;;;8.50;8.50;;;;;;;;3724690;38;20435;-65
2021/06/04 01:15:50;;;;;;;;;6.25;6.25;;;;;;;;3724997;38;20446;-64
2021/06/04 01:18:42;;;;;;;;;8.00;8.00;;;;;;;;3724946;38;20438;-63
2021/06/04 01:21:37;;;;;;;;;8.75;7.75;;;;;;;;3724970;38;20444;-63
2021/06/04 01:24:37;;;;;;;;;8.25;8.25;;;;;;;;3725101;37;20414;-63
2021/06/04 01:27:07;;;;;;;;;7.00;7.00;;;;;;;;3725056;38;20445;-63
2021/06/04 01:29:36;;;;;;;;;8.00;8.00;;;;;;;;3725015;38;20424;-65
2021/06/04 01:32:39;;;;;;;;;7.75;7.75;;;;;;;;3725096;38;20417;-64
2021/06/04 01:35:08;;;;;;;;;9.50;8.50;;;;;;;;3724912;37;20441;-64
2021/06/04 01:37:35;;;;;;;;;7.00;7.00;;;;;;;;3725232;38;20543;-64
2021/06/04 01:40:04;;;;;;;;;9.75;9.00;;;;;;;;3725228;38;20375;-66
2021/06/04 01:42:35;;;;;;;;;8.00;8.00;;;;;;;;3725176;38;20406;-65
2021/06/04 01:45:30;;;;;;;;;9.00;9.00;;;;;;;;3725164;38;20400;-65
2021/06/04 01:48:01;;;;;;;;;10.00;9.25;;;;;;;;3725237;37;20395;-65
2021/06/04 01:50:31;;;;;;;;;8.00;8.00;;;;;;;;3725306;37;20408;-64
2021/06/04 01:52:59;;;;;;;;;8.25;8.25;;;;;;;;3725126;37;20395;-64
2021/06/04 01:55:27;;;;;;;;;7.75;7.75;;;;;;;;3724893;37;20390;-64
2021/06/04 01:57:54;;;;;;;;;7.00;7.00;;;;;;;;3725165;37;20400;-64
2021/06/04 02:00:24;;;;;;;;;11.00;10.00;;;;;;;;3725061;38;20367;-64
2021/06/04 02:02:51;;;;;;;;;8.50;8.50;;;;;;;;3725145;37;20421;-64
2021/06/04 02:05:22;;;;;;;;;6.75;6.75;;;;;;;;3724450;38;20370;-65
2021/06/04 02:07:48;;;;;;;;;7.25;7.25;;;;;;;;3725155;37;20357;-64
2021/06/04 02:10:17;;;;;;;;;8.00;8.00;;;;;;;;3724642;38;20383;-65
2021/06/04 02:12:46;;;;;;;;;9.50;9.00;;;;;;;;3725205;37;20375;-64
2021/06/04 02:15:17;;;;;;;;;8.75;8.75;;;;;;;;3725151;38;20351;-64
2021/06/04 02:17:57;;;;;;;;;9.00;8.25;;;;;;;;3725076;37;20365;-63
2021/06/04 02:20:33;;;;;;;;;9.00;9.00;;;;;;;;3725064;38;20355;-63
2021/06/04 02:23:19;;;;;;;;;10.00;10.00;;;;;;;;3725009;37;20322;-63
2021/06/04 02:26:02;;;;;;;;;12.00;12.00;;;;;;;;3724723;38;20451;-65
2021/06/04 02:28:39;;;;;;;;;9.00;9.00;;;;;;;;3725069;38;20369;-63
2021/06/04 02:31:27;;;;;;;;;6.00;6.00;;;;;;;;3725124;37;20358;-63
2021/06/04 02:33:58;;;;;;;;;7.25;7.25;;;;;;;;3725107;37;20323;-66
2021/06/04 02:36:27;;;;;;;;;10.50;8.00;;;;;;;;3724637;37;20346;-65
2021/06/04 02:39:00;;;;;;;;;7.75;7.75;;;;;;;;3725017;37;20343;-64
2021/06/04 02:41:31;;;;;;;;;8.00;8.00;;;;;;;;3725097;37;20323;-65
2021/06/04 02:44:03;;;;;;;;;10.00;10.00;;;;;;;;3724903;37;20309;-63
2021/06/04 02:46:42;;;;;;;;;9.25;9.25;;;;;;;;3725196;37;20324;-64
2021/06/04 02:49:11;;;;;;;;;9.75;9.75;;;;;;;;3724997;38;20351;-64
2021/06/04 02:51:57;;;;;;;;;10.00;9.50;;;;;;;;3725037;38;20314;-63
2021/06/04 02:54:27;;;;;;;;;10.50;9.50;;;;;;;;3725017;38;20536;-67
2021/06/04 02:56:54;;;;;;;;;12.00;12.00;;;;;;;;3725126;37;20298;-66
2021/06/04 02:59:25;;;;;;;;;11.00;11.00;;;;;;;;3724993;37;20306;-64
2021/06/04 03:02:00;;;;;;;;;12.25;11.50;;;;;;;;3724897;38;20324;-64
2021/06/04 03:04:28;;;;;;;;;10.00;10.00;;;;;;;;3725022;38;20327;-63
2021/06/04 03:06:56;;;;;;;;;12.00;11.00;;;;;;;;3725249;37;20324;-63
2021/06/04 03:09:25;;;;;;;;;11.00;10.00;;;;;;;;3725257;38;20324;-64
2021/06/04 03:11:53;;;;;;;;;11.00;11.00;;;;;;;;3724862;37;20301;-63
2021/06/04 03:14:20;;;;;;;;;10.50;9.75;;;;;;;;3725048;37;20318;-65
2021/06/04 03:16:47;;;;;;;;;10.00;9.50;;;;;;;;3724445;37;20270;-63
2021/06/04 03:19:16;;;;;;;;;11.75;11.00;;;;;;;;3726487;37;20312;-66
2021/06/04 03:21:48;;;;;;;;;9.50;9.50;;;;;;;;3726268;37;20317;-65
2021/06/04 03:24:27;;;;;;;;;12.00;12.00;;;;;;;;3725043;38;20322;-66
2021/06/04 03:26:54;;;;;;;;;9.00;9.00;;;;;;;;3725176;37;20272;-65
2021/06/04 03:29:21;;;;;;;;;14.50;11.25;;;;;;;;3725259;37;20256;-64
2021/06/04 03:31:50;;;;;;;;;9.50;8.75;;;;;;;;3725015;37;20264;-64
2021/06/04 03:34:17;;;;;;;;;11.00;11.00;;;;;;;;3725074;37;20286;-65
2021/06/04 03:36:50;;;;;;;;;9.75;9.00;;;;;;;;3724743;38;20255;-64
2021/06/04 03:39:18;;;;;;;;;11.25;10.50;;;;;;;;3724746;37;20250;-65
2021/06/04 03:41:46;;;;;;;;;14.50;14.25;;;;;;;;3725084;38;20262;-63
2021/06/04 03:44:13;;;;;;;;;16.50;13.25;;;;;;;;3724609;37;20257;-63
2021/06/04 03:46:40;;;;;;;;;10.75;10.75;;;;;;;;3725160;38;20269;-63
2021/06/04 03:49:08;;;;;;;;;12.00;12.00;;;;;;;;3725049;38;20284;-62
2021/06/04 03:51:36;;;;;;;;;10.00;10.00;;;;;;;;3725064;37;20264;-64
2021/06/04 03:54:03;;;;;;;;;13.25;13.25;;;;;;;;3725030;38;20290;-64
2021/06/04 03:56:30;;;;;;;;;9.50;9.00;;;;;;;;3725199;37;20234;-65
2021/06/04 03:58:57;;;;;;;;;12.25;12.25;;;;;;;;3724901;38;20243;-64
2021/06/04 04:01:37;;;;;;;;;12.50;12.50;;;;;;;;3725196;38;20238;-63
2021/06/04 04:04:04;;;;;;;;;14.00;12.75;;;;;;;;3725318;38;20224;-64
2021/06/04 04:06:36;;;;;;;;;12.25;12.00;;;;;;;;3724762;37;20247;-66
2021/06/04 04:09:05;;;;;;;;;12.75;12.75;;;;;;;;3725112;37;20271;-67
2021/06/04 04:11:31;;;;;;;;;11.25;10.75;;;;;;;;3724723;37;20223;-67
2021/06/04 04:13:58;;;;;;;;;9.75;9.75;;;;;;;;3725079;38;20278;-66
2021/06/04 04:16:25;;;;;;;;;11.75;11.75;;;;;;;;3725040;38;20221;-65
2021/06/04 04:18:51;;;;;;;;;8.75;8.75;;;;;;;;3725222;37;20203;-66
2021/06/04 04:21:17;;;;;;;;;11.50;11.50;;;;;;;;3725206;37;20179;-64
2021/06/04 04:23:48;;;;;;;;;10.50;10.25;;;;;;;;3725277;37;20214;-64
2021/06/04 04:26:24;;;;;;;;;12.00;11.25;;;;;;;;3725067;38;20354;-67
2021/06/04 04:28:50;;;;;;;;;12.25;12.25;;;;;;;;3725128;37;20221;-64
2021/06/04 04:31:17;;;;;;;;;11.25;11.25;;;;;;;;3725261;38;20254;-65
2021/06/04 04:33:43;;;;;;;;;15.50;13.25;;;;;;;;3725386;38;20218;-65
2021/06/04 04:36:11;;;;;;;;;9.00;9.00;;;;;;;;3725375;38;20223;-64
2021/06/04 04:38:38;;;;;;;;;14.75;14.75;;;;;;;;3725430;37;20177;-62
2021/06/04 04:41:06;;;;;;;;;14.75;14.25;;;;;;;;3724783;37;20206;-65
2021/06/04 04:43:37;;;;;;;;;15.25;15.25;;;;;;;;3726626;37;20208;-63
2021/06/04 04:46:05;;;;;;;;;13.25;10.00;;;;;;;;3734775;37;20224;-68
2021/06/04 04:48:31;;;;;;;;;12.00;11.75;;;;;;;;3737081;37;20174;-68
2021/06/04 04:50:57;;;;;;;;;8.50;8.50;;;;;;;;3728771;37;20213;-66
2021/06/04 04:53:29;;;;;;;;;13.50;11.50;;;;;;;;3725739;37;20131;-64
2021/06/04 04:55:55;;;;;;;;;11.50;11.50;;;;;;;;3725383;37;20181;-65
2021/06/04 04:58:22;;;;;;;;;15.00;13.75;;;;;;;;3725720;37;20174;-64
2021/06/04 05:00:48;;;;;;;;;13.75;13.75;;;;;;;;3725356;38;18001;-64
2021/06/04 05:03:14;;;;;;;;;16.00;13.75;;;;;;;;3725365;37;20167;-66
2021/06/04 05:05:42;;;;;;;;;11.50;11.50;;;;;;;;3725507;38;20339;-64
2021/06/04 05:08:09;;;;;;;;;13.50;13.50;;;;;;;;3727861;38;20180;-67
2021/06/04 05:10:35;;;;;;;;;10.25;9.75;;;;;;;;3725817;38;20156;-67
2021/06/04 05:13:02;;;;;;;;;9.50;8.75;;;;;;;;3725561;37;20232;-65
2021/06/04 05:15:30;;;;;;;;;14.75;14.75;;;;;;;;3725858;37;20138;-65
2021/06/04 05:17:56;;;;;;;;;7.50;7.50;;;;;;;;3725412;37;20170;-63
2021/06/04 05:20:22;;;;;;;;;12.25;12.25;;;;;;;;3725828;37;20094;-66
2021/06/04 05:22:52;;;;;;;;;11.75;11.00;;;;;;;;3725963;38;17964;-70
2021/06/04 05:25:20;;;;;;;;;11.50;11.25;;;;;;;;3725987;37;20131;-70
2021/06/04 05:27:47;;;;;;;;;10.75;10.75;;;;;;;;3725648;38;20140;-67
2021/06/04 05:30:17;;;;;;;;;10.50;10.00;;;;;;;;3725619;38;20169;-70
2021/06/04 05:32:43;;;;;;;;;12.25;12.00;;;;;;;;3725930;38;20166;-72
2021/06/04 05:35:09;;;;;;;;;8.75;8.75;;;;;;;;3725271;38;20134;-69
2021/06/04 05:37:35;;;;;;;;;9.00;9.00;;;;;;;;3725856;37;20115;-70
2021/06/04 05:40:02;;;;;;;;;10.25;9.00;;;;;;;;3725116;38;20104;-71
2021/06/04 05:42:28;;;;;;;;;9.00;8.00;;;;;;;;3725780;37;20240;-71
2021/06/04 05:44:54;;;;;;;;;7.75;7.75;;;;;;;;3725102;37;20092;-70
2021/06/04 05:47:20;;;;;;;;;11.25;10.25;;;;;;;;3725780;38;17939;-70
2021/06/04 05:49:46;;;;;;;;;10.00;10.00;;;;;;;;3725672;37;17942;-70
2021/06/04 05:52:15;;;;;;;;;9.25;9.25;;;;;;;;3725580;38;17937;-67
2021/06/04 05:54:41;;;;;;;;;8.75;8.75;;;;;;;;3725711;37;20146;-70
2021/06/04 05:57:08;;;;;;;;;10.50;10.50;;;;;;;;3725394;38;20099;-70
2021/06/04 05:59:34;;;;;;;;;9.25;9.25;;;;;;;;3728636;38;20102;-71
2021/06/04 06:02:00;;;;;;;;;11.00;11.00;;;;;;;;3726558;37;20093;-70
2021/06/04 06:04:26;;;;;;;;;9.25;9.25;;;;;;;;3725726;38;20092;-67
2021/06/04 06:06:58;;;;;;;;;8.25;8.00;;;;;;;;3725709;38;20052;-67
2021/06/04 06:09:25;;;;;;;;;10.00;10.00;;;;;;;;3725579;38;17909;-68
2021/06/04 06:11:53;;;;;;;;;10.50;10.50;;;;;;;;3724861;37;20103;-66
2021/06/04 06:14:20;;;;;;;;;10.00;10.00;;;;;;;;3725560;38;20095;-67
2021/06/04 06:16:46;;;;;;;;;8.75;7.75;;;;;;;;3725122;37;20069;-68
2021/06/04 06:19:15;;;;;;;;;8.50;8.50;;;;;;;;3725016;37;20030;-66
2021/06/04 06:21:43;;;;;;;;;8.25;7.25;;;;;;;;3725006;37;20064;-70
2021/06/04 06:24:09;;;;;;;;;8.25;8.00;;;;;;;;3725093;38;20032;-69
2021/06/04 06:26:35;;;;;;;;;7.50;7.25;;;;;;;;3725437;37;20030;-70
2021/06/04 06:29:02;;;;;;;;;8.00;8.00;;;;;;;;3725435;38;20014;-71
2021/06/04 06:31:30;;;;;;;;;9.75;8.50;;;;;;;;3725509;38;20013;-69
2021/06/04 06:33:56;;;;;;;;;7.00;7.00;;;;;;;;3725279;37;20028;-69
2021/06/04 06:36:27;;;;;;;;;5.75;5.75;;;;;;;;3725574;37;20004;-69
2021/06/04 06:38:54;;;;;;;;;8.50;8.50;;;;;;;;3725564;37;20044;-70
2021/06/04 06:41:21;;;;;;;;;9.25;8.00;;;;;;;;3725934;37;20020;-69
2021/06/04 06:43:51;;;;;;;;;9.75;9.75;;;;;;;;3725195;37;20005;-69
2021/06/04 06:46:19;;;;;;;;;7.00;7.00;;;;;;;;3725397;37;20138;-69
2021/06/04 06:48:47;;;;;;;;;6.75;6.75;;;;;;;;3725282;37;19989;-69
2021/06/04 06:51:23;;;;;;;;;9.00;9.00;;;;;;;;3725128;38;19976;-68
2021/06/04 06:53:49;;;;;;;;;7.00;7.00;;;;;;;;3725531;38;19989;-70
2021/06/04 06:56:18;;;;;;;;;9.25;8.50;;;;;;;;3725455;38;19999;-69
2021/06/04 06:58:46;;;;;;;;;7.50;7.50;;;;;;;;3725600;38;19989;-69
2021/06/04 07:01:11;;;;;;;;;7.00;7.00;;;;;;;;3725295;38;19970;-68
2021/06/04 07:03:39;;;;;;;;;7.75;7.75;;;;;;;;3725625;38;19978;-68
2021/06/04 07:06:08;;;;;;;;;3.00;3.00;;;;;;;;3725209;37;17816;-68
2021/06/04 07:08:37;;;;;;;;;7.25;6.75;;;;;;;;3727834;37;19972;-69
2021/06/04 07:11:08;;;;;;;;;6.50;6.50;;;;;;;;3741589;37;19963;-68
2021/06/04 07:13:39;;;;;;;;;6.50;6.50;;;;;;;;3739721;37;19966;-68
2021/06/04 07:16:26;;;;;;;;;9.00;8.25;;;;;;;;3739859;38;19996;-68
2021/06/04 07:18:52;;;;;;;;;8.00;8.00;;;;;;;;3727718;37;19956;-69
2021/06/04 07:21:21;;;;;;;;;8.00;7.50;;;;;;;;3725578;38;19957;-68
2021/06/04 07:23:48;;;;;;;;;7.00;6.75;;;;;;;;3725559;38;19951;-68
2021/06/04 07:26:14;;;;;;;;;8.00;8.00;;;;;;;;3726321;38;19963;-69
2021/06/04 07:28:43;;;;;;;;;6.50;6.50;;;;;;;;3726097;38;19952;-70
2021/06/04 07:31:13;;;;;;;;;7.25;6.50;;;;;;;;3725763;37;19920;-67
2021/06/04 07:33:45;;;;;;;;;1.00;1.00;;;;;;;;3725686;38;19918;-67
2021/06/04 07:36:19;;;;;;;;;6.50;6.50;;;;;;;;3728895;38;19943;-69
2021/06/04 07:38:49;;;;;;;;;6.00;6.00;;;;;;;;3728548;38;19932;-70
2021/06/04 07:41:15;;;;;;;;;7.50;7.50;;;;;;;;3725407;38;20017;-68
2021/06/04 07:43:55;;;;;;;;;;;;;;;;;;;;;
2021/06/04 07:46:23;;;;;;;;;5.00;5.00;;;;;;;;3725390;38;19893;-69
2021/06/04 07:48:50;;;;;;;;;5.25;5.25;;;;;;;;3725444;37;19921;-71
2021/06/04 07:51:19;;;;;;;;;7.50;7.50;;;;;;;;3725538;37;19920;-69
2021/06/04 07:53:47;;;;;;;;;5.00;5.00;;;;;;;;3725415;37;19896;-69
2021/06/04 07:56:17;;;;;;;;;6.25;6.00;;;;;;;;3725196;37;19901;-69
2021/06/04 07:58:45;;;;;;;;;6.50;6.50;;;;;;;;3725271;37;19906;-69
2021/06/04 08:01:11;;;;;;;;;7.25;7.25;;;;;;;;3725015;38;19895;-70
2021/06/04 08:03:38;;;;;;;;;7.00;7.00;;;;;;;;3725491;37;19910;-67
2021/06/04 08:06:07;;;;;;;;;8.00;8.00;;;;;;;;3725169;37;19904;-70
2021/06/04 08:08:37;;;;;;;;;5.00;4.25;;;;;;;;3725673;38;19895;-70
2021/06/04 08:11:05;;;;;;;;;4.00;4.00;;;;;;;;3725241;37;19868;-68
2021/06/04 08:13:31;;;;;;;;;6.00;5.25;;;;;;;;3725578;38;19866;-68
2021/06/04 08:16:01;;;;;;;;;6.75;6.75;;;;;;;;3725079;38;19890;-68
2021/06/04 08:18:29;;;;;;;;;8.25;8.25;;;;;;;;3725573;37;17722;-68
2021/06/04 08:20:56;;;;;;;;;4.00;4.00;;;;;;;;3725325;37;19855;-68
2021/06/04 08:23:25;;;;;;;;;6.00;5.50;;;;;;;;3725025;38;19856;-68
2021/06/04 08:25:52;;;;;;;;;4.75;4.75;;;;;;;;3725678;37;19858;-68
2021/06/04 08:28:19;;;;;;;;;6.00;5.00;;;;;;;;3725711;37;19858;-67
2021/06/04 08:30:46;;;;;;;;;5.00;5.00;;;;;;;;3725626;38;19883;-67
2021/06/04 08:33:16;;;;;;;;;6.00;6.00;;;;;;;;3725500;38;19872;-67
2021/06/04 08:35:44;;;;;;;;;4.75;4.75;;;;;;;;3725493;37;19993;-67
2021/06/04 08:38:11;;;;;;;;;5.50;5.50;;;;;;;;3727549;37;19850;-68
2021/06/04 08:40:38;;;;;;;;;7.75;5.75;;;;;;;;3730011;37;19851;-66
2021/06/04 08:43:27;;;;;;;;;6.75;6.00;;;;;;;;3728997;37;19841;-65
2021/06/04 08:46:28;;;;;;;;;5.25;5.25;;;;;;;;3725393;37;19845;-67
2021/06/04 08:49:13;;;;;;;;;5.00;5.00;;;;;;;;3728523;37;19819;-67
2021/06/04 08:51:47;;;;;;;;;5.00;5.00;;;;;;;;3725429;38;19871;-67
2021/06/04 08:54:48;;;;;;;;;5.00;5.00;;;;;;;;3725285;37;19907;-67
2021/06/04 08:57:36;;;;;;;;;5.75;5.75;;;;;;;;3725283;37;19903;-67
2021/06/04 09:00:06;;;;;;;;;5.25;5.25;;;;;;;;3725380;37;19810;-66
2021/06/04 09:02:41;;;;;;;;;7.00;7.00;;;;;;;;3725114;37;19815;-67
2021/06/04 09:05:11;;;;;;;;;7.00;6.00;;;;;;;;3725496;37;19806;-66
2021/06/04 09:07:41;;;;;;;;;7.00;7.00;;;;;;;;3725628;37;19820;-66
2021/06/04 09:10:36;;;;;;;;;7.75;7.75;;;;;;;;3725217;37;19803;-65
2021/06/04 09:13:13;;;;;;;;;7.75;7.50;;;;;;;;3725140;37;19795;-64
2021/06/04 09:15:42;;;;;;;;;5.25;5.25;;;;;;;;3725225;38;19807;-65
2021/06/04 09:18:18;;;;;;;;;6.50;6.00;;;;;;;;3725207;38;19888;-65
2021/06/04 09:20:50;;;;;;;;;5.00;5.00;;;;;;;;3725149;37;19776;-66
2021/06/04 09:23:18;;;;;;;;;6.00;6.00;;;;;;;;3725301;37;19787;-65
2021/06/04 09:25:46;;;;;;;;;6.00;6.00;;;;;;;;3725151;38;19809;-66
2021/06/04 09:28:31;;;;;;;;;6.00;6.00;;;;;;;;3725432;38;19778;-67
2021/06/04 09:31:23;;;;;;;;;4.25;4.25;;;;;;;;3725231;38;19799;-66
2021/06/04 09:33:57;;;;;;;;;6.25;6.25;;;;;;;;3725423;37;19835;-66
2021/06/04 09:36:26;;;;;;;;;5.00;5.00;;;;;;;;3725390;37;19784;-66
2021/06/04 09:39:11;;;;;;;;;5.50;5.50;;;;;;;;3725432;37;19768;-65
2021/06/04 09:41:46;;;;;;;;;7.00;6.75;;;;;;;;3725297;37;19799;-66
2021/06/04 09:44:38;;;;;;;;;7.75;7.75;;;;;;;;3725208;37;19759;-65
2021/06/04 09:47:25;;;;;;;;;7.00;7.00;;;;;;;;3725328;37;19793;-66
2021/06/04 09:49:52;;;;;;;;;5.25;5.00;;;;;;;;3724992;37;19744;-65
2021/06/04 09:52:37;;;;;;;;;7.00;6.00;;;;;;;;3725316;37;19759;-65
2021/06/04 09:55:11;;;;;;;;;7.25;7.25;;;;;;;;3725089;37;19758;-67
2021/06/04 09:57:38;;;;;;;;;7.25;7.25;;;;;;;;3725017;38;19728;-66
2021/06/04 10:00:17;;;;;;;;;6.00;6.00;;;;;;;;3725449;37;19738;-66
2021/06/04 10:02:43;;;;;;;;;5.75;5.75;;;;;;;;3725117;38;19757;-66
2021/06/04 10:05:16;;;;;;;;;7.75;7.75;;;;;;;;3725692;37;19730;-66
2021/06/04 10:07:43;;;;;;;;;7.00;7.00;;;;;;;;3725555;38;17605;-65
2021/06/04 10:10:11;;;;;;;;;6.00;6.00;;;;;;;;3725270;37;19800;-65
2021/06/04 10:12:38;;;;;;;;;5.00;5.00;;;;;;;;3725432;38;19743;-66
2021/06/04 10:15:20;;;;;;;;;5.00;5.00;;;;;;;;3725041;37;19749;-65
2021/06/04 10:18:01;;;;;;;;;4.00;4.00;;;;;;;;3725748;37;19700;-65
2021/06/04 10:20:43;;;;;;;;;5.00;5.00;;;;;;;;3725376;37;19750;-66
2021/06/04 10:23:11;;;;;;;;;4.00;4.00;;;;;;;;3725250;38;19702;-65
2021/06/04 10:25:40;;;;;;;;;5.50;5.50;;;;;;;;3725279;37;19723;-65
2021/06/04 10:28:06;;;;;;;;;5.00;5.00;;;;;;;;3725210;38;19720;-65
2021/06/04 10:30:50;;;;;;;;;3.75;3.75;;;;;;;;3725240;37;19711;-66
2021/06/04 10:33:45;;;;;;;;;5.75;5.75;;;;;;;;3724936;37;17568;-65
2021/06/04 10:36:14;;;;;;;;;5.25;5.25;;;;;;;;3725352;37;19709;-65
2021/06/04 10:38:44;;;;;;;;;8.00;7.00;;;;;;;;3725430;38;19689;-66
2021/06/04 10:41:15;;;;;;;;;5.00;5.00;;;;;;;;3724819;37;19708;-65
2021/06/04 10:44:03;;;;;;;;;6.25;5.50;;;;;;;;3724671;38;19681;-66
2021/06/04 10:46:47;;;;;;;;;6.50;6.50;;;;;;;;3725239;37;19686;-65
2021/06/04 10:49:27;;;;;;;;;7.25;6.00;;;;;;;;3725180;38;19706;-66
2021/06/04 10:52:07;;;;;;;;;7.25;7.25;;;;;;;;3725000;37;19669;-65
2021/06/04 10:54:55;;;;;;;;;5.00;5.00;;;;;;;;3724999;37;19656;-66
2021/06/04 10:57:28;;;;;;;;;7.00;7.00;;;;;;;;3725413;38;19693;-66
2021/06/04 11:00:12;;;;;;;;;6.25;6.25;;;;;;;;3724756;37;19667;-66
2021/06/04 11:02:56;;;;;;;;;7.25;6.25;;;;;;;;3725132;38;19665;-65
2021/06/04 11:06:00;;;;;;;;;9.25;9.25;;;;;;;;3725606;37;19698;-66
2021/06/04 11:08:45;;;;;;;;;5.50;5.25;;;;;;;;3726123;37;19641;-65
2021/06/04 11:11:26;;;;;;;;;6.00;6.00;;;;;;;;3725634;37;19683;-65
2021/06/04 11:14:17;;;;;;;;;6.75;6.75;;;;;;;;3725355;38;19659;-67
2021/06/04 11:17:05;;;;;;;;;7.00;7.00;;;;;;;;3725533;37;20652;-65
2021/06/04 11:19:37;;;;;;;;;6.25;6.00;;;;;;;;3725285;38;20610;-63
2021/06/04 11:22:08;;;;;;;;;5.25;5.25;;;;;;;;3726425;37;20621;-67
2021/06/04 11:25:09;;;;;;;;;3.00;3.00;;;;;;;;3725529;38;20631;-66
2021/06/04 11:27:36;;;;;;;;;3.75;3.75;;;;;;;;3725374;37;20754;-65
2021/06/04 11:30:09;;;;;;;;;4.00;4.00;;;;;;;;3725482;37;20629;-65
2021/06/04 11:32:39;;;;;;;;;7.00;7.00;;;;;;;;3724909;38;20623;-65
2021/06/04 11:35:10;;;;;;;;;4.25;4.25;;;;;;;;3725401;38;20618;-67
2021/06/04 11:37:57;;;;;;;;;5.00;5.00;;;;;;;;3725483;37;20643;-65
2021/06/04 11:40:33;;;;;;;;;6.00;6.00;;;;;;;;3725007;37;20627;-66
2021/06/04 11:43:06;;;;;;;;;4.25;4.25;;;;;;;;3725211;37;20616;-65
2021/06/04 11:45:35;;;;;;;;;5.25;5.25;;;;;;;;3725643;38;20605;-70
2021/06/04 11:48:22;;;;;;;;;24.25;22.25;;;;;;;;3730517;37;20597;-66
2021/06/04 11:50:48;;;;;;;;;7.00;7.00;;;;;;;;3727121;37;20658;-66
2021/06/04 11:53:32;;;;;;;;;4.00;3.50;;;;;;;;3726288;37;20579;-64
2021/06/04 11:55:58;;;;;;;;;5.50;5.50;;;;;;;;3725165;37;20570;-66
2021/06/04 11:58:49;;;;;;;;;6.25;6.25;;;;;;;;3725033;37;20602;-68
2021/06/04 12:01:41;;;;;;;;;5.75;5.75;;;;;;;;3725404;37;20606;-65
2021/06/04 12:04:10;;;;;;;;;6.75;6.00;;;;;;;;3725160;38;20581;-65
2021/06/04 12:06:58;;;;;;;;;6.00;6.00;;;;;;;;3726100;38;20579;-64
2021/06/04 12:09:52;;;;;;;;;5.25;5.00;;;;;;;;3725032;37;20595;-66
2021/06/04 12:12:38;;;;;;;;;4.00;4.00;;;;;;;;3725519;37;20593;-65
2021/06/04 12:15:25;;;;;;;;;6.00;6.00;;;;;;;;3725772;38;20567;-65
2021/06/04 12:17:52;;;;;;;;;5.00;5.00;;;;;;;;3725473;37;20593;-66
2021/06/04 12:20:47;;;;;;;;;6.00;5.50;;;;;;;;3725089;38;20547;-65
2021/06/04 12:23:34;;;;;;;;;5.00;5.00;;;;;;;;3725458;37;20592;-66
2021/06/04 12:26:02;;;;;;;;;4.00;4.00;;;;;;;;3725275;38;20566;-68
2021/06/04 12:28:33;;;;;;;;;4.00;4.00;;;;;;;;3725530;38;20551;-67
2021/06/04 12:31:17;;;;;;;;;4.00;4.00;;;;;;;;3726831;37;20524;-66
2021/06/04 12:33:56;;;;;;;;;6.00;6.00;;;;;;;;3732028;37;20594;-66
2021/06/04 12:36:34;;;;;;;;;5.25;5.25;;;;;;;;3732592;37;20524;-65
2021/06/04 12:39:18;;;;;;;;;5.25;5.25;;;;;;;;3726257;37;20555;-66
2021/06/04 12:41:45;;;;;;;;;5.50;5.50;;;;;;;;3725327;38;20564;-67
2021/06/04 12:44:13;;;;;;;;;4.00;4.00;;;;;;;;3725405;37;20514;-66
2021/06/04 12:46:47;;;;;;;;;4.75;4.75;;;;;;;;3725395;37;20527;-67
2021/06/04 12:49:19;;;;;;;;;6.00;6.00;;;;;;;;3725130;37;20533;-67
2021/06/04 12:51:48;;;;;;;;;1.00;1.00;;;;;;;;3724982;37;20475;-68
2021/06/04 12:54:33;;;;;;;;;5.50;5.50;;;;;;;;3724951;38;20525;-66
2021/06/04 12:57:00;;;;;;;;;6.75;6.75;;;;;;;;3725299;37;20535;-64
2021/06/04 12:59:31;;;;;;;;;6.00;6.00;;;;;;;;3724987;38;20525;-64
2021/06/04 13:02:06;;;;;;;;;5.00;5.00;;;;;;;;3724851;37;20505;-63
2021/06/04 13:04:43;;;;;;;;;5.25;5.25;;;;;;;;3725201;38;20491;-64
2021/06/04 13:07:28;;;;;;;;;5.00;5.00;;;;;;;;3725163;37;20478;-65
2021/06/04 13:10:02;;;;;;;;;4.00;4.00;;;;;;;;3725678;37;20485;-65
2021/06/04 13:12:29;;;;;;;;;4.50;4.50;;;;;;;;3724905;37;20483;-65
2021/06/04 13:14:56;;;;;;;;;5.00;5.00;;;;;;;;3724809;37;20480;-65
2021/06/04 13:17:27;;;;;;;;;5.25;5.25;;;;;;;;3724794;38;20491;-64
2021/06/04 13:20:11;;;;;;;;;6.00;5.75;;;;;;;;3724970;37;20481;-65
2021/06/04 13:22:38;;;;;;;;;5.00;5.00;;;;;;;;3725275;37;20527;-64
2021/06/04 13:25:18;;;;;;;;;5.75;5.75;;;;;;;;3725333;37;20473;-65
2021/06/04 13:27:45;;;;;;;;;5.00;5.00;;;;;;;;3725501;37;20473;-64
2021/06/04 13:30:13;;;;;;;;;5.50;5.50;;;;;;;;3725264;38;20476;-64
2021/06/04 13:32:57;;;;;;;;;5.00;5.00;;;;;;;;3725206;38;20448;-65
2021/06/04 13:35:32;;;;;;;;;4.00;4.00;;;;;;;;3725415;38;20482;-66
2021/06/04 13:38:02;;;;;;;;;6.50;6.00;;;;;;;;3725118;37;20476;-64
2021/06/04 13:40:32;;;;;;;;;4.50;4.50;;;;;;;;3725345;37;20454;-65
2021/06/04 13:43:11;;;;;;;;;6.50;5.00;;;;;;;;3725247;37;20456;-66
2021/06/04 13:45:40;;;;;;;;;5.00;5.00;;;;;;;;3725052;38;20429;-64
2021/06/04 13:48:18;;;;;;;;;5.50;5.50;;;;;;;;3724875;37;20457;-62
2021/06/04 13:51:00;;;;;;;;;6.25;6.25;;;;;;;;3724733;37;20579;-65
2021/06/04 13:53:32;;;;;;;;;5.00;4.50;;;;;;;;3725197;38;20434;-61
2021/06/04 13:56:07;;;;;;;;;5.00;5.00;;;;;;;;3725188;38;20414;-62
2021/06/04 13:58:33;;;;;;;;;5.00;5.00;;;;;;;;3725321;37;20419;-65
2021/06/04 14:01:14;;;;;;;;;6.50;6.50;;;;;;;;3726974;37;20440;-63
2021/06/04 14:03:42;;;;;;;;;5.75;5.75;;;;;;;;3725194;38;20425;-62
2021/06/04 14:06:20;;;;;;;;;3.75;3.75;;;;;;;;3725096;38;20397;-62
2021/06/04 14:09:03;;;;;;;;;5.00;5.00;;;;;;;;3725285;37;20410;-63
2021/06/04 14:11:29;;;;;;;;;7.00;6.50;;;;;;;;3724824;38;20407;-60
2021/06/04 14:14:00;;;;;;;;;6.50;6.50;;;;;;;;3725042;37;20393;-63
2021/06/04 14:16:54;;;;;;;;;5.25;5.25;;;;;;;;3725193;38;20415;-62
2021/06/04 14:19:31;;;;;;;;;6.50;6.50;;;;;;;;3725225;38;20427;-60
2021/06/04 14:21:57;;;;;;;;;5.00;5.00;;;;;;;;3724623;37;20396;-59
2021/06/04 14:24:43;;;;;;;;;8.00;7.25;;;;;;;;3725418;38;20389;-60
2021/06/04 14:27:27;;;;;;;;;7.00;6.25;;;;;;;;3724964;38;20424;-58
2021/06/04 14:30:03;;;;;;;;;6.75;6.25;;;;;;;;3725007;38;20374;-58
2021/06/04 14:32:30;;;;;;;;;5.00;5.00;;;;;;;;3725006;37;20372;-62
2021/06/04 14:35:03;;;;;;;;;7.25;7.00;;;;;;;;3725090;38;20390;-61
2021/06/04 14:37:49;;;;;;;;;5.00;5.00;;;;;;;;3725373;37;20391;-60
2021/06/04 14:40:18;;;;;;;;;5.50;5.50;;;;;;;;3725642;38;20380;-60
2021/06/04 14:42:44;;;;;;;;;5.00;5.00;;;;;;;;3725358;38;20372;-63
2021/06/04 14:45:13;;;;;;;;;6.00;6.00;;;;;;;;3725177;37;20353;-62
2021/06/04 14:47:41;;;;;;;;;5.75;5.00;;;;;;;;3724756;38;20360;-61
2021/06/04 14:50:28;;;;;;;;;5.75;5.75;;;;;;;;3724785;37;20380;-60
2021/06/04 14:52:55;;;;;;;;;7.00;6.50;;;;;;;;3724973;38;20370;-62
2021/06/04 14:55:24;;;;;;;;;6.25;6.25;;;;;;;;3724825;37;20351;-62
2021/06/04 14:57:51;;;;;;;;;6.50;5.75;;;;;;;;3725122;38;20346;-61
2021/06/04 15:00:19;;;;;;;;;6.25;5.25;;;;;;;;3725183;38;20310;-64
2021/06/04 15:02:45;;;;;;;;;6.00;6.00;;;;;;;;3724632;37;20355;-62
2021/06/04 15:05:13;;;;;;;;;5.00;5.00;;;;;;;;3725121;37;20339;-61
2021/06/04 15:07:40;;;;;;;;;6.00;5.00;;;;;;;;3725229;38;20334;-63
2021/06/04 15:10:08;;;;;;;;;5.75;5.00;;;;;;;;3724817;37;20309;-63